createdAt,value
2019-04-29T00:02:16.936Z,5.73
2019-04-29T00:04:47.927Z,5.71
2019-04-29T00:07:17.951Z,5.73
2019-04-29T00:09:47.632Z,5.75
2019-04-29T00:12:17.426Z,5.70
2019-04-29T00:14:54.460Z,5.69
2019-04-29T00:17:25.725Z,5.66
2019-04-29T00:20:12.877Z,5.65
2019-04-29T00:22:42.569Z,5.67
2019-04-29T00:25:12.222Z,5.68
2019-04-29T00:27:41.914Z,5.68
2019-04-29T00:30:13.241Z,5.72
2019-04-29T00:32:42.908Z,5.70
2019-04-29T00:35:12.526Z,5.69
2019-04-29T00:37:59.992Z,5.72
2019-04-29T00:40:46.389Z,5.65
2019-04-29T00:43:17.749Z,5.53
2019-04-29T00:45:47.504Z,5.50
2019-04-29T00:48:17.244Z,5.54
2019-04-29T00:50:46.934Z,5.56
2019-04-29T00:53:16.693Z,5.63
2019-04-29T00:55:49.261Z,5.74
2019-04-29T00:58:18.877Z,5.74
2019-04-29T01:00:48.997Z,5.64
2019-04-29T01:03:18.692Z,5.46
2019-04-29T01:05:48.417Z,5.42
2019-04-29T01:08:18.039Z,5.52
2019-04-29T01:10:47.689Z,5.54
2019-04-29T01:13:17.311Z,5.44
2019-04-29T01:15:46.966Z,5.45
2019-04-29T01:18:16.656Z,5.49
2019-04-29T01:20:46.379Z,5.52
2019-04-29T01:23:16.001Z,5.65
2019-04-29T01:25:47.293Z,5.56
2019-04-29T01:28:18.557Z,5.61
2019-04-29T01:31:04.114Z,5.58
2019-04-29T01:33:33.737Z,5.58
2019-04-29T01:36:16.935Z,5.61
2019-04-29T01:38:48.836Z,5.60
2019-04-29T01:41:20.289Z,5.62
2019-04-29T01:43:59.456Z,5.68
2019-04-29T01:46:30.376Z,5.62
2019-04-29T01:48:59.998Z,5.68
2019-04-29T01:51:29.722Z,5.66
2019-04-29T01:53:59.341Z,5.64
2019-04-29T01:56:28.989Z,5.65
2019-04-29T01:58:58.605Z,5.63
2019-04-29T02:01:28.330Z,5.71
2019-04-29T02:03:57.948Z,5.63
2019-04-29T02:06:27.671Z,5.66
2019-04-29T02:08:57.560Z,5.68
2019-04-29T02:11:27.211Z,5.62
2019-04-29T02:13:56.907Z,5.62
2019-04-29T02:16:26.550Z,5.57
2019-04-29T02:18:57.539Z,5.55
2019-04-29T02:21:27.564Z,5.55
2019-04-29T02:24:07.804Z,5.58
2019-04-29T02:26:37.459Z,5.62
2019-04-29T02:29:07.144Z,5.65
2019-04-29T02:31:41.365Z,5.70
2019-04-29T02:34:10.697Z,5.70
2019-04-29T02:36:40.429Z,5.70
2019-04-29T02:39:12.540Z,5.71
2019-04-29T02:42:00.192Z,5.75
2019-04-29T02:44:29.851Z,5.69
2019-04-29T02:46:59.476Z,5.74
2019-04-29T02:49:29.168Z,5.65
2019-04-29T02:51:59.180Z,5.57
2019-04-29T02:54:30.013Z,5.65
2019-04-29T02:57:04.222Z,5.59
2019-04-29T02:59:35.525Z,5.51
2019-04-29T03:02:06.845Z,5.50
2019-04-29T03:04:38.213Z,5.52
2019-04-29T03:07:07.849Z,5.43
2019-04-29T03:09:46.651Z,5.42
2019-04-29T03:12:16.282Z,5.50
2019-04-29T03:14:47.191Z,5.50
2019-04-29T03:17:18.857Z,5.50
2019-04-29T03:20:05.781Z,5.53
2019-04-29T03:22:35.944Z,5.51
2019-04-29T03:25:06.362Z,5.49
2019-04-29T03:27:36.013Z,5.50
2019-04-29T03:30:06.151Z,5.50
2019-04-29T03:32:35.793Z,5.49
2019-04-29T03:35:07.055Z,5.47
2019-04-29T03:37:36.766Z,5.46
2019-04-29T03:40:06.385Z,5.44
2019-04-29T03:42:36.036Z,5.42
2019-04-29T03:45:06.931Z,5.40
2019-04-29T03:47:36.594Z,5.33
2019-04-29T03:50:06.209Z,5.32
2019-04-29T03:52:35.865Z,5.30
2019-04-29T03:55:06.553Z,5.28
2019-04-29T03:57:37.787Z,5.28
2019-04-29T04:00:08.602Z,5.27
2019-04-29T04:02:42.962Z,5.24
2019-04-29T04:05:25.437Z,5.25
2019-04-29T04:10:58.125Z,5.04
2019-04-29T04:13:27.778Z,5.04
2019-04-29T04:15:57.773Z,4.97
2019-04-29T04:18:29.323Z,4.93
2019-04-29T04:20:58.926Z,4.97
2019-04-29T04:23:28.618Z,5.00
2019-04-29T04:25:58.212Z,4.97
2019-04-29T04:28:28.161Z,4.99
2019-04-29T04:30:58.094Z,4.91
2019-04-29T04:33:27.853Z,4.87
2019-04-29T04:35:57.441Z,4.89
2019-04-29T04:38:27.090Z,4.92
2019-04-29T04:40:58.355Z,4.92
2019-04-29T04:43:28.007Z,4.90
2019-04-29T04:45:57.920Z,4.81
2019-04-29T04:48:27.872Z,4.87
2019-04-29T04:50:57.823Z,4.87
2019-04-29T04:53:27.441Z,4.97
2019-04-29T04:56:00.238Z,4.99
2019-04-29T04:58:30.164Z,5.09
2019-04-29T05:01:00.182Z,5.09
2019-04-29T05:03:30.173Z,5.05
2019-04-29T05:06:00.128Z,5.04
2019-04-29T05:08:30.054Z,5.06
2019-04-29T05:11:00.000Z,5.10
2019-04-29T05:13:29.924Z,5.11
2019-04-29T05:15:59.902Z,5.11
2019-04-29T05:18:29.812Z,5.16
2019-04-29T05:20:59.444Z,5.17
2019-04-29T05:23:29.405Z,5.28
2019-04-29T05:25:59.326Z,5.37
2019-04-29T05:28:29.348Z,5.51
2019-04-29T05:30:59.273Z,5.73
2019-04-29T05:33:29.228Z,5.86
2019-04-29T05:36:09.954Z,5.96
2019-04-29T05:38:41.561Z,6.12
2019-04-29T05:41:11.488Z,6.20
2019-04-29T05:43:42.790Z,6.20
2019-04-29T05:46:17.492Z,6.38
2019-04-29T05:48:46.836Z,6.39
2019-04-29T05:51:18.108Z,6.43
2019-04-29T05:53:54.917Z,6.47
2019-04-29T05:56:21.331Z,6.56
2019-04-29T05:58:50.987Z,6.56
2019-04-29T06:01:22.247Z,6.63
2019-04-29T06:03:52.207Z,6.79
2019-04-29T06:06:21.869Z,6.79
2019-04-29T06:08:51.798Z,6.79
2019-04-29T06:11:23.173Z,6.79
2019-04-29T06:13:52.775Z,6.85
2019-04-29T06:16:22.762Z,6.77
2019-04-29T06:18:59.349Z,6.71
2019-04-29T06:21:24.772Z,6.77
2019-04-29T06:23:59.232Z,6.59
2019-04-29T06:26:27.098Z,6.59
2019-04-29T06:28:57.060Z,6.58
2019-04-29T06:31:28.289Z,6.53
2019-04-29T06:34:00.745Z,6.61
2019-04-29T06:36:29.590Z,6.51
2019-04-29T06:38:59.232Z,6.51
2019-04-29T06:41:29.513Z,6.54
2019-04-29T06:44:00.632Z,6.57
2019-04-29T06:46:31.825Z,6.55
2019-04-29T06:49:10.125Z,6.55
2019-04-29T06:51:33.059Z,6.59
2019-04-29T06:54:03.424Z,6.56
2019-04-29T06:56:33.044Z,6.64
2019-04-29T06:59:02.693Z,6.72
2019-04-29T07:01:33.124Z,6.85
2019-04-29T07:04:03.690Z,6.89
2019-04-29T07:06:33.333Z,7.00
2019-04-29T07:09:03.046Z,7.00
2019-04-29T07:11:36.503Z,7.07
2019-04-29T07:14:04.595Z,7.07
2019-04-29T07:16:34.251Z,7.07
2019-04-29T07:19:03.885Z,7.09
2019-04-29T07:21:33.548Z,7.09
2019-04-29T07:24:03.618Z,7.00
2019-04-29T07:26:33.343Z,6.98
2019-04-29T07:29:02.979Z,7.06
2019-04-29T07:31:33.510Z,7.06
2019-04-29T07:34:04.054Z,7.18
2019-04-29T07:36:33.784Z,7.13
2019-04-29T07:39:04.982Z,7.13
2019-04-29T07:41:36.064Z,7.33
2019-04-29T07:44:05.882Z,7.33
2019-04-29T07:46:55.524Z,7.43
2019-04-29T07:49:12.756Z,7.43
2019-04-29T07:51:40.905Z,7.66
2019-04-29T07:54:15.579Z,7.66
2019-04-29T07:56:43.517Z,7.70
2019-04-29T07:59:13.309Z,7.70
2019-04-29T08:01:43.041Z,7.79
2019-04-29T08:04:12.677Z,7.81
2019-04-29T08:06:44.452Z,7.85
2019-04-29T08:09:14.346Z,7.82
2019-04-29T08:11:44.045Z,7.82
2019-04-29T08:14:13.705Z,7.69
2019-04-29T08:16:43.370Z,7.79
2019-04-29T08:19:13.006Z,7.88
2019-04-29T08:21:45.497Z,8.01
2019-04-29T08:24:15.901Z,8.10
2019-04-29T08:26:47.711Z,8.14
2019-04-29T08:29:16.838Z,8.21
2019-04-29T08:31:46.538Z,8.16
2019-04-29T08:34:18.819Z,8.10
2019-04-29T08:36:47.527Z,8.30
2019-04-29T08:39:17.259Z,8.30
2019-04-29T08:41:47.024Z,8.32
2019-04-29T08:44:30.064Z,8.42
2019-04-29T08:47:10.314Z,8.60
2019-04-29T08:49:41.355Z,8.65
2019-04-29T08:52:11.017Z,8.59
2019-04-29T08:54:40.649Z,8.54
2019-04-29T08:57:10.352Z,8.66
2019-04-29T08:59:40.087Z,8.67
2019-04-29T09:02:10.571Z,8.76
2019-04-29T09:04:52.749Z,8.70
2019-04-29T09:07:17.103Z,8.94
2019-04-29T09:09:43.854Z,9.22
2019-04-29T09:12:13.590Z,9.41
2019-04-29T09:14:43.234Z,9.29
2019-04-29T09:17:20.185Z,9.20
2019-04-29T09:19:44.236Z,9.09
2019-04-29T09:22:15.549Z,8.99
2019-04-29T09:25:02.895Z,8.85
2019-04-29T09:27:32.908Z,8.93
2019-04-29T09:30:02.680Z,9.35
2019-04-29T09:32:33.934Z,9.45
2019-04-29T09:35:04.300Z,9.53
2019-04-29T09:37:34.439Z,9.60
2019-04-29T09:40:06.570Z,9.79
2019-04-29T09:42:57.045Z,9.79
2019-04-29T09:45:33.865Z,9.82
2019-04-29T09:48:03.608Z,9.63
2019-04-29T09:50:34.087Z,9.49
2019-04-29T09:53:04.874Z,9.41
2019-04-29T09:55:35.740Z,9.16
2019-04-29T09:58:08.103Z,8.98
2019-04-29T10:00:51.143Z,8.86
2019-04-29T10:03:28.190Z,8.88
2019-04-29T10:05:59.463Z,8.64
2019-04-29T10:08:29.266Z,8.33
2019-04-29T10:10:58.974Z,8.23
2019-04-29T10:13:28.727Z,8.16
2019-04-29T10:16:02.810Z,8.00
2019-04-29T10:18:50.546Z,8.00
2019-04-29T10:21:23.392Z,7.73
2019-04-29T10:23:53.537Z,7.75
2019-04-29T10:26:23.275Z,7.68
2019-04-29T10:28:57.118Z,7.89
2019-04-29T10:31:26.859Z,7.90
2019-04-29T10:33:56.636Z,7.95
2019-04-29T10:36:26.555Z,7.95
2019-04-29T10:38:58.629Z,8.06
2019-04-29T10:41:36.118Z,8.09
2019-04-29T10:44:06.357Z,8.32
2019-04-29T10:46:53.844Z,8.19
2019-04-29T10:52:14.404Z,8.35
2019-04-29T10:54:44.136Z,8.30
2019-04-29T10:57:14.939Z,8.29
2019-04-29T10:59:50.230Z,8.28
2019-04-29T11:02:30.549Z,8.23
2019-04-29T11:05:17.078Z,8.21
2019-04-29T11:07:49.240Z,8.13
2019-04-29T11:10:26.509Z,8.09
2019-04-29T11:12:56.354Z,7.85
2019-04-29T11:15:32.710Z,7.54
2019-04-29T11:18:03.661Z,7.55
2019-04-29T11:20:33.749Z,7.62
2019-04-29T11:23:09.113Z,7.57
2019-04-29T11:25:57.967Z,7.70
2019-04-29T11:28:27.685Z,7.82
2019-04-29T11:30:57.386Z,7.71
2019-04-29T11:33:39.988Z,7.81
2019-04-29T11:36:16.387Z,7.79
2019-04-29T11:38:46.020Z,7.83
2019-04-29T11:41:19.750Z,7.82
2019-04-29T11:43:51.088Z,7.81
2019-04-29T11:46:21.061Z,7.80
2019-04-29T11:48:51.482Z,7.78
2019-04-29T11:51:28.518Z,7.79
2019-04-29T11:53:58.225Z,7.79
2019-04-29T11:56:28.032Z,7.59
2019-04-29T11:59:02.164Z,7.65
2019-04-29T12:01:38.836Z,7.65
2019-04-29T12:04:15.498Z,7.70
2019-04-29T12:06:45.137Z,7.81
2019-04-29T12:09:15.437Z,8.01
2019-04-29T12:11:45.173Z,8.04
2019-04-29T12:14:16.473Z,8.18
2019-04-29T12:16:47.817Z,8.22
2019-04-29T12:19:21.268Z,8.27
2019-04-29T12:21:50.473Z,8.01
2019-04-29T12:24:20.397Z,8.02
2019-04-29T12:26:50.444Z,8.15
2019-04-29T12:29:20.830Z,8.27
2019-04-29T12:31:52.197Z,8.26
2019-04-29T12:34:35.452Z,8.17
2019-04-29T12:37:06.800Z,8.14
2019-04-29T12:39:54.605Z,8.31
2019-04-29T12:42:35.708Z,8.56
2019-04-29T12:45:28.296Z,8.54
2019-04-29T12:47:58.259Z,8.69
2019-04-29T12:50:27.924Z,8.80
2019-04-29T12:52:57.552Z,8.80
2019-04-29T12:55:44.068Z,8.84
2019-04-29T12:58:02.433Z,8.60
2019-04-29T13:00:46.691Z,8.44
2019-04-29T13:03:09.693Z,8.45
2019-04-29T13:05:58.720Z,8.46
2019-04-29T13:08:33.388Z,8.61
2019-04-29T13:11:06.058Z,8.85
2019-04-29T13:13:35.759Z,8.92
2019-04-29T13:16:23.467Z,9.00
2019-04-29T13:18:55.726Z,9.07
2019-04-29T13:21:26.186Z,8.96
2019-04-29T13:24:12.550Z,9.03
2019-04-29T13:26:28.755Z,9.19
2019-04-29T13:29:27.352Z,9.38
2019-04-29T13:31:56.323Z,9.43
2019-04-29T13:34:31.039Z,9.48
2019-04-29T13:37:07.171Z,9.37
2019-04-29T13:39:39.626Z,9.19
2019-04-29T13:42:09.255Z,8.90
2019-04-29T13:45:07.925Z,8.43
2019-04-29T13:47:50.180Z,7.96
2019-04-29T13:50:38.423Z,7.78
2019-04-29T13:52:50.378Z,7.79
2019-04-29T13:55:46.200Z,7.81
2019-04-29T13:57:54.692Z,7.99
2019-04-29T14:00:27.834Z,8.17
2019-04-29T14:03:02.439Z,8.35
2019-04-29T14:05:36.800Z,8.47
2019-04-29T14:08:04.732Z,8.42
2019-04-29T14:10:34.879Z,8.36
2019-04-29T14:15:40.041Z,8.31
2019-04-29T14:18:11.803Z,8.33
2019-04-29T14:18:53.622Z,8.32
2019-04-29T14:20:39.960Z,8.34
2019-04-29T14:23:10.094Z,8.40
2019-04-29T14:25:39.729Z,8.46
2019-04-29T14:28:09.416Z,8.53
2019-04-29T14:30:43.297Z,8.55
2019-04-29T14:33:10.604Z,8.70
2019-04-29T14:35:43.811Z,8.86
2019-04-29T14:38:14.139Z,8.99
2019-04-29T14:40:44.920Z,9.00
2019-04-29T14:43:32.554Z,8.90
2019-04-29T14:46:15.874Z,8.96
2019-04-29T14:48:43.110Z,9.00
2019-04-29T14:51:12.855Z,8.97
2019-04-29T14:53:55.761Z,8.84
2019-04-29T14:56:15.771Z,8.75
2019-04-29T14:58:45.305Z,8.67
2019-04-29T15:01:16.614Z,8.69
2019-04-29T15:03:56.585Z,8.58
2019-04-29T15:06:28.895Z,8.54
2019-04-29T15:08:59.201Z,8.48
2019-04-29T15:11:32.536Z,8.48
2019-04-29T15:14:07.130Z,8.34
2019-04-29T15:16:47.416Z,8.27
2019-04-29T15:19:34.860Z,8.28
2019-04-29T15:22:06.347Z,8.24
2019-04-29T15:24:36.910Z,8.21
2019-04-29T15:27:06.712Z,8.10
2019-04-29T15:29:36.398Z,7.99
2019-04-29T15:32:06.084Z,7.85
2019-04-29T15:34:35.775Z,7.74
2019-04-29T15:37:05.501Z,7.71
2019-04-29T15:39:40.763Z,7.72
2019-04-29T15:42:09.761Z,7.78
2019-04-29T15:44:39.725Z,7.93
2019-04-29T15:47:09.369Z,7.75
2019-04-29T15:49:39.096Z,7.73
2019-04-29T15:52:08.815Z,7.80
2019-04-29T15:54:38.516Z,7.80
2019-04-29T15:57:10.702Z,7.84
2019-04-29T15:59:48.713Z,7.95
2019-04-29T16:02:11.194Z,7.95
2019-04-29T16:04:48.619Z,7.92
2019-04-29T16:07:25.911Z,7.89
2019-04-29T16:09:59.625Z,7.87
2019-04-29T16:12:51.084Z,7.58
2019-04-29T16:15:17.446Z,7.58
2019-04-29T16:17:47.145Z,7.55
2019-04-29T16:20:18.213Z,7.40
2019-04-29T16:22:47.810Z,7.41
2019-04-29T16:25:17.483Z,7.43
2019-04-29T16:27:53.017Z,7.19
2019-04-29T16:30:19.308Z,7.23
2019-04-29T16:32:49.031Z,7.17
2019-04-29T16:35:23.534Z,7.00
2019-04-29T16:37:50.023Z,6.93
2019-04-29T16:40:19.863Z,6.95
2019-04-29T16:42:52.305Z,7.01
2019-04-29T16:45:23.686Z,7.01
2019-04-29T16:47:53.319Z,6.91
2019-04-29T16:50:22.991Z,6.91
2019-04-29T16:52:52.628Z,6.87
2019-04-29T16:55:22.373Z,6.91
2019-04-29T16:57:52.070Z,7.01
2019-04-29T17:00:23.376Z,7.01
2019-04-29T17:02:53.148Z,6.96
2019-04-29T17:05:22.877Z,6.99
2019-04-29T17:07:52.643Z,6.99
2019-04-29T17:10:23.960Z,7.02
2019-04-29T17:12:53.583Z,7.05
2019-04-29T17:15:26.063Z,7.03
2019-04-29T17:17:56.171Z,6.94
2019-04-29T17:20:25.883Z,6.94
2019-04-29T17:22:55.677Z,6.84
2019-04-29T17:25:25.790Z,6.83
2019-04-29T17:27:57.094Z,6.84
2019-04-29T17:30:46.524Z,6.75
2019-04-29T17:33:27.629Z,6.75
2019-04-29T17:35:52.491Z,6.90
2019-04-29T17:38:22.165Z,6.82
2019-04-29T17:40:52.183Z,6.82
2019-04-29T17:43:23.548Z,6.86
2019-04-29T17:45:54.825Z,6.93
2019-04-29T17:48:38.323Z,6.91
2019-04-29T17:51:09.493Z,6.84
2019-04-29T17:53:43.430Z,6.85
2019-04-29T17:56:14.985Z,6.81
2019-04-29T17:58:51.425Z,6.80
2019-04-29T18:01:36.883Z,6.79
2019-04-29T18:04:11.709Z,6.70
2019-04-29T18:06:46.679Z,6.73
2019-04-29T18:09:29.734Z,6.73
2019-04-29T18:12:01.263Z,6.76
2019-04-29T18:14:37.870Z,6.76
2019-04-29T18:17:02.386Z,6.70
2019-04-29T18:19:34.879Z,6.67
2019-04-29T18:22:16.238Z,6.69
2019-04-29T18:27:49.127Z,6.59
2019-04-29T18:30:33.195Z,6.59
2019-04-29T18:32:50.995Z,6.55
2019-04-29T18:35:20.922Z,6.56
2019-04-29T18:37:50.563Z,6.53
2019-04-29T18:40:20.300Z,6.46
2019-04-29T18:42:50.073Z,6.44
2019-04-29T18:45:21.411Z,6.53
2019-04-29T18:47:51.118Z,6.47
2019-04-29T18:50:20.799Z,6.55
2019-04-29T18:52:50.726Z,6.42
2019-04-29T18:55:20.759Z,6.33
2019-04-29T18:57:54.575Z,6.35
2019-04-29T19:00:25.345Z,6.35
2019-04-29T19:02:58.445Z,6.46
2019-04-29T19:05:46.156Z,6.46
2019-04-29T19:08:23.038Z,6.34
2019-04-29T19:10:51.082Z,6.34
2019-04-29T19:13:18.523Z,6.39
2019-04-29T19:15:48.726Z,6.40
2019-04-29T19:18:21.121Z,6.28
2019-04-29T19:20:52.664Z,6.25
2019-04-29T19:23:24.975Z,6.34
2019-04-29T19:25:54.867Z,6.34
2019-04-29T19:28:30.215Z,6.25
2019-04-29T19:31:03.219Z,6.26
2019-04-29T19:33:30.690Z,6.13
2019-04-29T19:36:00.576Z,6.19
2019-04-29T19:38:30.313Z,6.19
2019-04-29T19:41:00.325Z,6.22
2019-04-29T19:43:30.083Z,6.25
2019-04-29T19:45:59.715Z,6.25
2019-04-29T19:48:29.388Z,6.31
2019-04-29T19:51:14.718Z,6.32
2019-04-29T19:53:37.729Z,6.32
2019-04-29T19:56:06.304Z,6.40
2019-04-29T19:58:35.213Z,6.41
2019-04-29T20:01:13.997Z,6.30
2019-04-29T20:03:41.544Z,6.27
2019-04-29T20:06:21.102Z,6.22
2019-04-29T20:08:53.859Z,6.28
2019-04-29T20:11:17.482Z,6.23
2019-04-29T20:14:00.928Z,6.24
2019-04-29T20:16:40.383Z,6.32
2019-04-29T20:19:12.278Z,6.35
2019-04-29T20:21:36.709Z,6.33
2019-04-29T20:24:09.360Z,6.39
2019-04-29T20:26:38.254Z,6.33
2019-04-29T20:29:08.809Z,6.35
2019-04-29T20:31:48.609Z,6.37
2019-04-29T20:34:11.503Z,6.35
2019-04-29T20:36:43.069Z,6.33
2019-04-29T20:39:16.270Z,6.34
2019-04-29T20:41:47.072Z,6.44
2019-04-29T20:44:16.472Z,6.31
2019-04-29T20:47:12.957Z,6.31
2019-04-29T20:49:17.994Z,6.33
2019-04-29T20:51:52.394Z,6.33
2019-04-29T20:54:25.702Z,6.35
2019-04-29T20:57:02.896Z,6.26
2019-04-29T20:59:27.072Z,6.18
2019-04-29T21:02:11.332Z,6.20
2019-04-29T21:04:34.052Z,6.20
2019-04-29T21:07:02.706Z,6.28
2019-04-29T21:09:33.161Z,6.21
2019-04-29T21:12:20.446Z,6.31
2019-04-29T21:14:52.186Z,6.31
2019-04-29T21:17:31.255Z,6.36
2019-04-29T21:19:53.816Z,6.35
2019-04-29T21:22:25.893Z,6.27
2019-04-29T21:24:55.286Z,6.22
2019-04-29T21:27:26.036Z,6.20
2019-04-29T21:29:56.181Z,6.20
2019-04-29T21:32:26.214Z,6.19
2019-04-29T21:35:10.159Z,6.19
2019-04-29T21:37:40.074Z,6.19
2019-04-29T21:40:14.679Z,6.08
2019-04-29T21:42:55.442Z,6.17
2019-04-29T21:45:25.761Z,6.01
2019-04-29T21:47:55.779Z,6.01
2019-04-29T21:50:27.150Z,6.04
2019-04-29T21:53:01.835Z,6.01
2019-04-29T21:55:29.517Z,5.98
2019-04-29T21:58:00.211Z,6.01
2019-04-29T22:00:30.669Z,6.14
2019-04-29T22:03:02.221Z,6.04
2019-04-29T22:05:32.188Z,6.15
2019-04-29T22:08:02.485Z,6.16
2019-04-29T22:10:34.493Z,6.06
2019-04-29T22:13:05.014Z,6.05
2019-04-29T22:15:39.001Z,6.16
2019-04-29T22:18:13.482Z,6.03
2019-04-29T22:20:42.247Z,6.07
2019-04-29T22:23:13.126Z,6.05
2019-04-29T22:25:45.637Z,6.13
2019-04-29T22:28:15.919Z,6.14
2019-04-29T22:30:45.348Z,6.14
2019-04-29T22:33:15.451Z,6.18
2019-04-29T22:35:46.703Z,6.30
2019-04-29T22:38:18.769Z,6.11
2019-04-29T22:40:49.434Z,6.05
2019-04-29T22:43:21.039Z,6.01
2019-04-29T22:45:50.774Z,6.01
2019-04-29T22:48:20.709Z,5.96
2019-04-29T22:50:50.369Z,5.96
2019-04-29T22:53:20.297Z,6.04
2019-04-29T22:55:50.022Z,6.04
2019-04-29T22:58:19.821Z,6.07
2019-04-29T23:00:49.790Z,5.98
2019-04-29T23:03:20.792Z,6.07
2019-04-29T23:05:50.755Z,5.93
2019-04-29T23:08:21.237Z,5.94
2019-04-29T23:10:51.202Z,5.94
2019-04-29T23:13:21.138Z,6.00
2019-04-29T23:15:53.754Z,5.93
2019-04-29T23:18:26.735Z,5.90
2019-04-29T23:21:11.585Z,5.90
2019-04-29T23:23:48.983Z,6.02
2019-04-29T23:26:18.644Z,5.98
2019-04-29T23:28:48.578Z,5.93
2019-04-29T23:31:22.679Z,5.95
2019-04-29T23:33:53.184Z,5.87
2019-04-29T23:36:21.919Z,5.87
2019-04-29T23:38:51.821Z,5.89
2019-04-29T23:41:27.720Z,5.88
2019-04-29T23:43:55.174Z,5.91
2019-04-29T23:46:24.833Z,5.91
2019-04-29T23:48:56.498Z,5.86
2019-04-29T23:51:27.355Z,5.86
2019-04-29T23:54:03.563Z,5.84
2019-04-29T23:56:30.761Z,5.79
2019-04-29T23:59:05.523Z,5.81
